Time;durP1;ratioP1;P1;durP2;ratioP2;P2;SDS_P1;SDS_P2;PMS_P1;PMS_P2;Temp;Humidity;BMP_temperature;BMP_pressure;BME280_temperature;BME280_humidity;BME280_pressure;Samples;Min_cycle;Max_cycle;Signal;HPM_P1;HPM_P2
2022/05/16 00:01:28;;;;;;;0.53;0.47;;;;;;;18.54;100.00;95634.63;5114024;28;20423;-53
2022/05/16 00:03:56;;;;;;;0.40;0.30;;;;;;;18.67;100.00;95643.66;5113589;28;20431;-53
2022/05/16 00:06:25;;;;;;;0.40;0.30;;;;;;;18.25;100.00;95645.84;5113566;28;20526;-52
2022/05/16 00:08:55;;;;;;;0.40;0.30;;;;;;;18.35;100.00;95642.06;5113474;28;20485;-53
2022/05/16 00:11:23;;;;;;;0.40;0.20;;;;;;;18.53;100.00;95646.44;5113767;28;20428;-53
2022/05/16 00:13:52;;;;;;;0.40;0.30;;;;;;;18.36;100.00;95644.47;5113482;28;20519;-53
2022/05/16 00:16:20;;;;;;;0.40;0.30;;;;;;;18.31;100.00;95622.34;5113392;28;20577;-53
2022/05/16 00:18:51;;;;;;;0.57;0.40;;;;;;;18.40;100.00;95642.75;5113051;28;20416;-53
2022/05/16 00:21:20;;;;;;;0.50;0.30;;;;;;;18.37;100.00;95643.34;5113295;28;20463;-53
2022/05/16 00:23:48;;;;;;;0.50;0.40;;;;;;;18.25;100.00;95645.03;5113252;28;21036;-53
2022/05/16 00:26:16;;;;;;;0.40;0.30;;;;;;;17.93;100.00;95643.47;5113225;28;20472;-53
2022/05/16 00:28:45;;;;;;;4.57;0.90;;;;;;;18.07;100.00;95648.72;5113300;28;20476;-53
2022/05/16 00:31:13;;;;;;;0.50;0.30;;;;;;;17.71;100.00;95641.59;5113073;28;20427;-53
2022/05/16 00:33:42;;;;;;;0.50;0.40;;;;;;;17.84;100.00;95641.81;5113360;28;20484;-53
2022/05/16 00:36:12;;;;;;;0.60;0.40;;;;;;;18.04;100.00;95649.34;5112315;27;20569;-53
2022/05/16 00:38:40;;;;;;;0.40;0.30;;;;;;;18.01;100.00;95618.56;5112488;28;20450;-53
2022/05/16 00:41:09;;;;;;;0.50;0.30;;;;;;;18.24;100.00;95643.47;5112475;28;20884;-53
2022/05/16 00:43:47;;;;;;;0.77;0.73;;;;;;;18.13;100.00;95650.19;5112018;28;20423;-53
2022/05/16 00:46:17;;;;;;;0.40;0.20;;;;;;;18.06;100.00;95650.66;5113161;28;20513;-53
2022/05/16 00:48:46;;;;;;;0.47;0.47;;;;;;;17.69;100.00;95649.16;5112787;28;20432;-53
2022/05/16 00:51:21;;;;;;;0.40;0.27;;;;;;;17.80;100.00;95657.75;5112716;28;20481;-53
2022/05/16 00:53:52;;;;;;;0.40;0.30;;;;;;;17.83;100.00;95630.31;5112809;28;20506;-53
2022/05/16 00:56:21;;;;;;;0.40;0.30;;;;;;;17.99;100.00;95654.84;5112524;28;20518;-53
2022/05/16 00:58:50;;;;;;;0.50;0.40;;;;;;;17.87;100.00;95622.44;5112715;28;20920;-53
2022/05/16 01:06:56;;;;;;;0.60;0.30;;;;;;;18.21;100.00;95647.56;5112591;28;20459;-53
2022/05/16 01:09:25;;;;;;;0.50;0.30;;;;;;;18.22;100.00;95649.13;5112176;28;20427;-53
2022/05/16 01:11:54;;;;;;;0.40;0.20;;;;;;;18.20;100.00;95648.66;5111763;28;20470;-53
2022/05/16 01:14:51;;;;;;;0.40;0.30;;;;;;;18.03;100.00;95651.25;5112359;28;20467;-52
2022/05/16 01:17:21;;;;;;;0.50;0.40;;;;;;;18.02;100.00;95648.88;5095165;28;20534;-53
2022/05/16 01:19:50;;;;;;;0.40;0.20;;;;;;;17.52;100.00;95587.41;5112269;28;20479;-53
2022/05/16 01:22:24;;;;;;;1.13;0.30;;;;;;;16.61;100.00;95462.09;5112536;28;20479;-53
2022/05/16 01:24:55;;;;;;;0.53;0.53;;;;;;;17.67;100.00;95635.25;5112517;28;20501;-53
2022/05/16 01:27:24;;;;;;;0.50;0.30;;;;;;;17.73;100.00;95639.38;5112752;28;20451;-53
2022/05/16 01:29:52;;;;;;;0.40;0.20;;;;;;;17.77;100.00;95642.25;5112425;28;20875;-54
2022/05/16 01:32:20;;;;;;;0.40;0.30;;;;;;;17.80;100.00;95638.19;5112261;28;20510;-53
2022/05/16 01:34:50;;;;;;;1.47;0.40;;;;;;;17.61;100.00;95623.06;5112198;28;20455;-53
2022/05/16 01:38:18;;;;;;;0.50;0.43;;;;;;;17.70;100.00;95628.50;5112587;28;20506;-52
2022/05/16 01:40:09;;;;;;;0.43;0.30;;;;;;;17.61;100.00;95628.44;5111728;28;20797;-52
2022/05/16 01:42:38;;;;;;;0.40;0.20;;;;;;;17.59;100.00;95636.00;5111870;28;20419;-52
2022/05/16 01:45:08;;;;;;;0.43;0.40;;;;;;;17.53;100.00;95631.84;5112260;28;20649;-51
2022/05/16 01:47:36;;;;;;;0.40;0.30;;;;;;;17.26;100.00;95623.91;5111832;28;20453;-51
2022/05/16 01:50:06;;;;;;;0.40;0.30;;;;;;;17.29;100.00;95638.56;5111789;28;20944;-51
2022/05/16 01:52:36;;;;;;;0.40;0.30;;;;;;;17.22;100.00;95632.84;5112066;28;20415;-51
2022/05/16 01:55:05;;;;;;;0.40;0.20;;;;;;;17.46;100.00;95638.69;5112706;28;20510;-52
2022/05/16 01:57:33;;;;;;;0.60;0.60;;;;;;;17.63;100.00;95639.63;5115624;28;20431;-52
2022/05/16 02:00:02;;;;;;;0.40;0.30;;;;;;;17.63;100.00;95630.81;5115731;28;20498;-52
2022/05/16 02:02:30;;;;;;;0.40;0.30;;;;;;;17.77;100.00;95634.22;5115448;28;20431;-52
2022/05/16 02:04:58;;;;;;;0.40;0.20;;;;;;;17.74;100.00;95640.97;5116072;28;20420;-52
2022/05/16 02:07:27;;;;;;;0.40;0.30;;;;;;;17.70;100.00;95649.94;5115975;28;20522;-52
2022/05/16 02:09:57;;;;;;;0.40;0.20;;;;;;;17.68;100.00;95646.78;5115872;28;20455;-52
2022/05/16 02:12:25;;;;;;;0.40;0.20;;;;;;;17.59;100.00;95652.06;5115706;28;20438;-52
2022/05/16 02:14:54;;;;;;;0.60;0.40;;;;;;;17.48;100.00;95645.34;5115846;28;20538;-52
2022/05/16 02:17:22;;;;;;;0.40;0.20;;;;;;;17.47;100.00;95651.81;5115883;28;20561;-52
2022/05/16 02:19:51;;;;;;;1.00;0.40;;;;;;;17.01;100.00;95586.97;5115683;27;20427;-53
2022/05/16 02:25:07;;;;;;;0.40;0.40;;;;;;;17.23;100.00;95632.53;5115570;28;20514;-52
2022/05/16 02:27:36;;;;;;;0.40;0.30;;;;;;;17.27;100.00;95646.91;5115722;28;20459;-52
2022/05/16 02:30:06;;;;;;;0.40;0.30;;;;;;;17.19;100.00;95644.16;5115403;28;20510;-52
2022/05/16 02:32:35;;;;;;;0.50;0.30;;;;;;;17.14;100.00;95637.03;5115479;28;20503;-52
2022/05/16 02:35:04;;;;;;;1.50;0.40;;;;;;;17.12;100.00;95644.59;5115619;28;20510;-52
2022/05/16 02:37:32;;;;;;;0.40;0.30;;;;;;;17.15;100.00;95652.03;5115597;28;20463;-52
2022/05/16 02:40:01;;;;;;;0.40;0.20;;;;;;;16.99;100.00;95651.56;5115702;28;20447;-52
2022/05/16 02:42:31;;;;;;;0.50;0.33;;;;;;;17.10;100.00;95666.28;5115302;28;20466;-52
2022/05/16 02:45:00;;;;;;;0.40;0.30;;;;;;;17.15;100.00;95662.75;5115563;28;20515;-52
2022/05/16 02:47:28;;;;;;;0.40;0.30;;;;;;;17.03;100.00;95655.22;5115134;28;20474;-52
2022/05/16 02:49:57;;;;;;;0.40;0.30;;;;;;;16.74;100.00;95649.44;5114718;28;20423;-52
2022/05/16 02:52:25;;;;;;;0.50;0.30;;;;;;;16.84;100.00;95664.47;5115077;28;20515;-52
2022/05/16 02:54:54;;;;;;;0.40;0.30;;;;;;;16.83;100.00;95668.25;5114977;28;20428;-52
2022/05/16 02:57:22;;;;;;;0.40;0.20;;;;;;;15.36;100.00;95436.88;5114781;28;20463;-51
2022/05/16 02:59:52;;;;;;;0.50;0.50;;;;;;;16.87;100.00;95669.25;5115146;28;20510;-51
2022/05/16 03:02:20;;;;;;;0.40;0.40;;;;;;;16.93;100.00;95678.72;5115007;28;20466;-51
2022/05/16 03:04:49;;;;;;;0.40;0.30;;;;;;;16.95;100.00;95677.34;5114533;28;20912;-51
2022/05/16 03:07:18;;;;;;;0.40;0.30;;;;;;;17.04;100.00;95678.22;5113964;27;20523;-52
2022/05/16 03:09:48;;;;;;;0.57;0.57;;;;;;;17.17;100.00;95690.00;5114371;28;20496;-50
2022/05/16 03:12:16;;;;;;;0.40;0.30;;;;;;;17.33;100.00;95685.88;5114609;28;20455;-51
2022/05/16 03:14:44;;;;;;;0.40;0.20;;;;;;;16.44;100.00;95599.94;5114325;28;20573;-51
2022/05/16 03:17:14;;;;;;;0.40;0.30;;;;;;;17.19;100.00;95697.72;5114500;28;21062;-51
2022/05/16 03:19:43;;;;;;;0.50;0.40;;;;;;;17.17;100.00;95705.28;5114461;28;20426;-52
2022/05/16 03:22:11;;;;;;;0.40;0.20;;;;;;;17.12;100.00;95666.00;5114429;28;20463;-52
2022/05/16 03:24:40;;;;;;;0.40;0.20;;;;;;;17.10;100.00;95677.00;5114390;28;20463;-51
2022/05/16 03:27:09;;;;;;;0.50;0.37;;;;;;;17.28;100.00;95702.06;5113379;28;20430;-52
2022/05/16 03:29:38;;;;;;;0.40;0.20;;;;;;;17.00;100.00;95663.84;5114182;28;20506;-51
2022/05/16 03:32:07;;;;;;;0.40;0.20;;;;;;;17.09;100.00;95699.56;5114349;28;20502;-52
2022/05/16 03:34:37;;;;;;;0.40;0.30;;;;;;;17.15;100.00;95702.91;5114120;28;20523;-52
2022/05/16 03:37:06;;;;;;;0.40;0.30;;;;;;;17.05;100.00;95703.13;5114102;27;20553;-53
2022/05/16 03:42:20;;;;;;;0.50;0.30;;;;;;;17.00;100.00;95708.59;5113503;28;20511;-52
2022/05/16 03:44:48;;;;;;;0.97;0.80;;;;;;;16.89;100.00;95712.56;5113968;28;20461;-52
2022/05/16 03:47:17;;;;;;;0.40;0.20;;;;;;;16.91;100.00;95719.22;5114022;28;20515;-52
2022/05/16 03:49:47;;;;;;;0.50;0.30;;;;;;;16.84;100.00;95723.38;5114206;28;20506;-52
2022/05/16 03:52:15;;;;;;;0.60;0.40;;;;;;;16.75;100.00;95725.16;5113819;28;20463;-52
2022/05/16 03:54:44;;;;;;;0.40;0.20;;;;;;;16.74;100.00;95726.25;5114007;28;20941;-52
2022/05/16 03:57:12;;;;;;;0.47;0.30;;;;;;;15.69;100.00;95543.41;5113910;28;20481;-52
2022/05/16 03:59:41;;;;;;;0.60;0.57;;;;;;;16.98;100.00;95714.22;5113774;28;20909;-52
2022/05/16 04:02:09;;;;;;;0.40;0.30;;;;;;;17.31;100.00;95730.16;5113343;28;20531;-52
2022/05/16 04:04:38;;;;;;;0.40;0.40;;;;;;;17.16;100.00;95725.91;5113634;28;20804;-52
2022/05/16 04:07:08;;;;;;;1.13;1.10;;;;;;;17.12;100.00;95730.31;5113490;28;20466;-52
2022/05/16 04:09:37;;;;;;;0.50;0.50;;;;;;;16.95;100.00;95684.59;5113879;28;20427;-52
2022/05/16 04:12:06;;;;;;;0.40;0.30;;;;;;;17.33;100.00;95736.03;5113413;28;21027;-52
2022/05/16 04:14:35;;;;;;;0.40;0.30;;;;;;;17.21;100.00;95731.16;5113550;28;20499;-52
2022/05/16 04:17:03;;;;;;;0.60;0.40;;;;;;;17.23;100.00;95746.94;5113265;28;20567;-52
2022/05/16 04:19:32;;;;;;;0.40;0.40;;;;;;;17.37;100.00;95751.19;5113305;28;20420;-52
2022/05/16 04:22:01;;;;;;;0.60;0.60;;;;;;;16.53;100.00;95610.78;5113472;27;20463;-52
2022/05/16 04:24:31;;;;;;;0.50;0.50;;;;;;;17.49;100.00;95756.00;5113440;28;20502;-53
2022/05/16 04:27:01;;;;;;;0.50;0.40;;;;;;;17.63;100.00;95754.13;5113129;27;20474;-51
2022/05/16 04:29:29;;;;;;;0.40;0.20;;;;;;;17.53;100.00;95757.03;5113047;28;20550;-52
2022/05/16 04:31:58;;;;;;;0.40;0.40;;;;;;;17.35;100.00;95715.88;5113213;28;20523;-51
2022/05/16 04:34:27;;;;;;;0.50;0.37;;;;;;;17.36;100.00;95754.94;5112974;28;20467;-51
2022/05/16 04:36:55;;;;;;;0.53;0.53;;;;;;;16.90;100.00;95741.69;5112980;28;20585;-52
2022/05/16 04:39:24;;;;;;;0.40;0.40;;;;;;;16.87;100.00;95754.91;5112715;28;20432;-51
2022/05/16 04:44:45;;;;;;;0.70;0.40;;;;;;;16.02;100.00;95679.66;5101990;28;20969;-52
2022/05/16 04:47:14;;;;;;;0.50;0.47;;;;;;;16.59;100.00;95743.41;5112701;28;20424;-52
2022/05/16 04:49:43;;;;;;;0.40;0.30;;;;;;;16.92;100.00;95765.53;5112598;28;20423;-53
2022/05/16 04:52:12;;;;;;;1.90;1.53;;;;;;;16.32;100.00;95705.88;5111768;28;20435;-52
2022/05/16 04:54:40;;;;;;;0.70;0.70;;;;;;;16.10;100.00;95764.56;5112650;28;20515;-52
2022/05/16 04:57:10;;;;;;;0.50;0.40;;;;;;;16.07;100.00;95757.91;5111793;28;20510;-52
2022/05/16 04:59:38;;;;;;;0.60;0.53;;;;;;;16.02;100.00;95768.69;5112956;28;20510;-52
2022/05/16 05:02:07;;;;;;;0.80;0.50;;;;;;;16.67;100.00;95766.78;5112577;28;20527;-56
2022/05/16 05:04:35;;;;;;;14.27;0.70;;;;;;;16.59;100.00;95764.00;5112788;28;20431;-56
2022/05/16 05:07:04;;;;;;;0.40;0.30;;;;;;;16.65;100.00;95768.97;5112644;28;20435;-56
2022/05/16 05:14:31;;;;;;;1.33;0.40;;;;;;;17.08;100.00;95764.09;5112532;28;20999;-56
2022/05/16 05:15:11;;;;;;;0.50;0.30;;;;;;;17.38;100.00;95766.16;5111989;28;20475;-56
2022/05/16 05:17:40;;;;;;;0.80;0.80;;;;;;;17.49;100.00;95764.84;5111516;28;20520;-55
2022/05/16 05:20:13;;;;;;;0.50;0.40;;;;;;;17.56;100.00;95770.63;5112304;28;20451;-55
2022/05/16 05:22:42;;;;;;;1.80;0.37;;;;;;;17.85;100.00;95769.44;5112131;28;20430;-56
2022/05/16 05:25:14;;;;;;;0.63;0.63;;;;;;;18.21;100.00;95768.31;5112032;28;20589;-56
2022/05/16 05:27:45;;;;;;;0.60;0.40;;;;;;;17.52;100.00;95772.31;5112385;28;20415;-56
2022/05/16 05:30:17;;;;;;;0.87;0.50;;;;;;;17.15;100.00;95773.31;5111625;28;20872;-56
2022/05/16 05:32:46;;;;;;;1.17;0.50;;;;;;;17.38;100.00;95768.84;5111362;28;20989;-56
2022/05/16 05:35:15;;;;;;;0.70;0.70;;;;;;;17.43;100.00;95773.31;5112012;28;20416;-56
2022/05/16 05:37:45;;;;;;;1.33;0.87;;;;;;;17.88;100.00;95758.91;5112240;28;20593;-56
2022/05/16 05:40:15;;;;;;;0.73;0.67;;;;;;;17.55;100.00;95750.28;5112026;28;20508;-56
2022/05/16 05:42:45;;;;;;;0.50;0.40;;;;;;;17.86;100.00;95768.34;5111485;28;20462;-56
2022/05/16 05:45:13;;;;;;;0.50;0.30;;;;;;;18.62;100.00;95767.31;5111509;28;20424;-56
2022/05/16 05:47:42;;;;;;;0.60;0.40;;;;;;;19.14;100.00;95768.28;5111940;28;20420;-58
2022/05/16 05:50:11;;;;;;;0.40;0.40;;;;;;;18.65;98.88;95770.13;5111669;28;20510;-57
2022/05/16 05:52:40;;;;;;;0.70;0.40;;;;;;;18.81;100.00;95768.66;5111896;28;20427;-55
2022/05/16 05:55:09;;;;;;;0.90;0.80;;;;;;;19.75;100.00;95761.94;5111624;28;20937;-55
2022/05/16 05:57:37;;;;;;;0.67;0.67;;;;;;;20.11;91.64;95759.72;5111302;28;20467;-55
2022/05/16 06:00:11;;;;;;;0.50;0.43;;;;;;;19.17;90.81;95692.41;5112223;28;20842;-53
2022/05/16 06:02:42;;;;;;;7.10;1.23;;;;;;;19.72;92.16;95784.88;5111618;28;20443;-54
2022/05/16 06:05:12;;;;;;;1.23;0.60;;;;;;;20.38;86.53;95766.66;5111734;28;20459;-54
2022/05/16 06:07:41;;;;;;;0.50;0.43;;;;;;;20.32;87.54;95759.84;5111639;28;20952;-56
2022/05/16 06:10:11;;;;;;;1.00;0.93;;;;;;;21.10;83.60;95756.59;5111430;28;20470;-54
2022/05/16 06:12:40;;;;;;;0.50;0.50;;;;;;;20.89;81.96;95763.81;5111883;28;20466;-54
2022/05/16 06:15:12;;;;;;;0.40;0.30;;;;;;;21.47;79.90;95763.88;5111168;28;20506;-54
2022/05/16 06:17:43;;;;;;;0.40;0.30;;;;;;;21.46;75.15;95753.38;5111519;28;20524;-55
2022/05/16 06:20:14;;;;;;;0.77;0.60;;;;;;;21.22;78.60;95764.81;5111447;28;21032;-54
2022/05/16 06:22:42;;;;;;;0.50;0.30;;;;;;;21.92;73.83;95765.94;5111887;28;20423;-53
2022/05/16 06:25:32;;;;;;;0.67;0.63;;;;;;;21.98;71.28;95756.53;5111882;28;20853;-55
2022/05/16 06:28:04;;;;;;;0.40;0.40;;;;;;;21.48;73.37;95762.72;5111497;28;20435;-53
2022/05/16 06:30:35;;;;;;;0.67;0.67;;;;;;;21.82;69.64;95680.75;5111213;28;20800;-54
2022/05/16 06:33:04;;;;;;;0.60;0.60;;;;;;;22.10;67.84;95749.28;5111430;28;20827;-53
2022/05/16 06:35:33;;;;;;;0.60;0.47;;;;;;;22.58;65.26;95754.03;5111575;28;20500;-54
2022/05/16 06:38:07;;;;;;;0.70;0.60;;;;;;;22.96;66.23;95753.78;5111461;28;20546;-53
2022/05/16 06:40:38;;;;;;;0.50;0.50;;;;;;;23.44;63.17;95752.22;5111742;28;20428;-54
2022/05/16 06:43:07;;;;;;;0.60;0.60;;;;;;;23.80;63.26;95749.47;5113985;28;20816;-53
2022/05/16 06:45:37;;;;;;;0.50;0.40;;;;;;;24.16;58.58;95745.88;5114841;28;20432;-54
2022/05/16 06:48:07;;;;;;;1.00;0.70;;;;;;;24.60;59.38;95733.91;5114932;28;20412;-54
2022/05/16 06:50:37;;;;;;;0.50;0.40;;;;;;;24.43;55.16;95728.81;5115032;28;20438;-54
2022/05/16 06:53:07;;;;;;;0.73;0.73;;;;;;;24.38;56.42;95737.19;5114867;28;20423;-53
2022/05/16 06:55:35;;;;;;;2.20;0.53;;;;;;;24.82;56.06;95727.91;5114727;28;20517;-53
2022/05/16 06:58:04;;;;;;;0.50;0.50;;;;;;;24.58;52.92;95736.97;5114977;28;20556;-52
2022/05/16 07:00:32;;;;;;;0.60;0.40;;;;;;;24.59;57.29;95727.69;5114763;28;20985;-53
2022/05/16 07:03:02;;;;;;;0.70;0.50;;;;;;;24.91;53.02;95733.16;5114980;28;20451;-53
2022/05/16 07:05:46;;;;;;;0.73;0.63;;;;;;;25.14;52.26;95737.63;5114711;28;20426;-53
2022/05/16 07:08:15;;;;;;;0.70;0.70;;;;;;;24.77;51.58;95732.81;5114675;28;20522;-52
2022/05/16 07:10:44;;;;;;;0.50;0.50;;;;;;;24.68;52.12;95729.44;5114595;28;20460;-53
2022/05/16 07:13:14;;;;;;;0.50;0.47;;;;;;;25.27;51.88;95720.09;5114433;28;20470;-53
2022/05/16 07:15:42;;;;;;;0.87;0.40;;;;;;;25.60;50.92;95721.66;5114377;28;20471;-53
2022/05/16 07:18:13;;;;;;;0.37;0.30;;;;;;;26.54;48.83;95718.50;5114260;28;20996;-53
2022/05/16 07:20:41;;;;;;;0.50;0.50;;;;;;;25.64;48.67;95720.56;5113379;28;20514;-54
2022/05/16 07:23:10;;;;;;;1.30;1.30;;;;;;;26.12;49.07;95711.13;5114561;28;20532;-54
2022/05/16 07:28:22;;;;;;;0.40;0.30;;;;;;;26.83;47.85;95713.22;5115587;27;20431;-55
2022/05/16 07:30:51;;;;;;;0.60;0.50;;;;;;;26.48;44.92;95707.16;5114741;28;20499;-55
2022/05/16 07:33:21;;;;;;;0.80;0.60;;;;;;;27.15;43.77;95697.41;5113631;28;20488;-56
2022/05/16 07:35:50;;;;;;;0.50;0.43;;;;;;;27.43;43.77;95702.50;5114207;28;20909;-55
2022/05/16 07:38:20;;;;;;;0.63;0.50;;;;;;;27.79;43.18;95696.41;5114014;28;20467;-56
2022/05/16 07:40:49;;;;;;;0.80;0.80;;;;;;;27.26;42.97;95697.56;5113969;28;20478;-56
2022/05/16 07:43:18;;;;;;;0.73;0.60;;;;;;;27.47;45.28;95646.19;5113875;28;20427;-56
2022/05/16 07:45:47;;;;;;;0.43;0.43;;;;;;;27.94;42.12;95681.00;5113102;28;20924;-56
2022/05/16 07:48:17;;;;;;;0.50;0.50;;;;;;;28.05;42.62;95695.59;5114369;28;20507;-55
2022/05/16 07:50:48;;;;;;;0.73;0.40;;;;;;;27.65;41.31;95693.50;5113002;28;20432;-55
2022/05/16 07:53:16;;;;;;;0.70;0.70;;;;;;;27.66;40.73;95690.41;5113265;28;20898;-55
2022/05/16 07:55:47;;;;;;;0.40;0.40;;;;;;;27.84;41.29;95690.63;5113879;28;20834;-55
2022/05/16 07:58:16;;;;;;;0.40;0.30;;;;;;;28.15;41.99;95673.13;5113621;28;20513;-55
2022/05/16 08:00:45;;;;;;;1.33;0.90;;;;;;;28.09;40.55;95625.56;5112933;28;20423;-56
2022/05/16 08:03:15;;;;;;;0.40;0.30;;;;;;;29.56;38.57;95686.06;5113523;28;20893;-55
2022/05/16 08:05:43;;;;;;;0.40;0.30;;;;;;;29.33;38.61;95691.00;5113405;28;20510;-55
2022/05/16 08:11:16;;;;;;;0.60;0.43;;;;;;;29.39;37.75;95680.50;5113361;28;20943;-59
2022/05/16 08:13:44;;;;;;;0.40;0.40;;;;;;;28.98;36.57;95561.66;5113704;28;20847;-58
2022/05/16 08:16:13;;;;;;;0.60;0.60;;;;;;;29.02;36.81;95666.19;5113175;27;20506;-60
2022/05/16 08:18:42;;;;;;;0.50;0.40;;;;;;;28.66;36.11;95652.25;5112889;28;20503;-60
2022/05/16 08:21:11;;;;;;;3.70;0.80;;;;;;;28.29;34.87;95649.53;5112686;28;20502;-60
2022/05/16 08:23:41;;;;;;;0.60;0.50;;;;;;;29.16;34.94;95674.47;5112385;28;20424;-60
2022/05/16 08:26:10;;;;;;;0.57;0.57;;;;;;;29.35;35.66;95676.94;5112457;28;20916;-60
2022/05/16 08:28:40;;;;;;;1.40;1.30;;;;;;;28.57;37.31;95596.41;5113404;28;20488;-59
2022/05/16 08:31:08;;;;;;;0.40;0.40;;;;;;;29.66;34.13;95672.84;5112995;28;20451;-63
2022/05/16 08:33:38;;;;;;;1.27;1.27;;;;;;;30.53;32.75;95606.00;5112837;28;20455;-62
2022/05/16 08:41:53;;;;;;;3.07;0.50;;;;;;;31.45;31.02;95638.81;5112813;28;20463;-60
2022/05/16 08:44:28;;;;;;;0.40;0.37;;;;;;;31.56;31.12;95647.78;5112595;28;20459;-60
2022/05/16 08:47:12;;;;;;;0.40;0.30;;;;;;;31.81;29.89;95528.66;5112867;28;20826;-59
2022/05/16 08:49:46;;;;;;;0.40;0.30;;;;;;;32.41;30.33;95635.28;5113075;28;20538;-59
2022/05/16 08:52:24;;;;;;;0.50;0.40;;;;;;;32.30;31.85;95645.56;5112017;28;20453;-59
2022/05/16 08:54:59;;;;;;;0.60;0.60;;;;;;;31.18;31.75;95643.91;5112481;28;20458;-59
2022/05/16 08:57:32;;;;;;;1.00;0.50;;;;;;;31.85;30.86;95641.81;5112448;28;20973;-58
2022/05/16 09:00:07;;;;;;;1.37;0.50;;;;;;;31.39;28.44;95622.78;5112605;28;20462;-58
2022/05/16 09:02:36;;;;;;;0.50;0.30;;;;;;;31.32;30.14;95537.84;5112338;28;20467;-58
2022/05/16 09:05:14;;;;;;;0.43;0.40;;;;;;;31.65;27.78;95637.22;5111829;28;20423;-58
2022/05/16 09:07:46;;;;;;;0.40;0.30;;;;;;;32.24;28.12;95633.41;5112243;28;20438;-58
2022/05/16 09:10:21;;;;;;;0.70;0.67;;;;;;;31.57;29.37;95611.00;5112308;28;20924;-58
2022/05/16 09:13:01;;;;;;;0.40;0.40;;;;;;;32.44;29.27;95626.25;5112435;28;20487;-58
2022/05/16 09:15:39;;;;;;;0.60;0.40;;;;;;;33.59;28.68;95609.22;5112018;28;20510;-58
2022/05/16 09:18:24;;;;;;;0.50;0.47;;;;;;;32.81;27.28;95594.63;5112300;28;20892;-58
2022/05/16 09:21:04;;;;;;;0.40;0.30;;;;;;;32.98;26.92;95623.91;5112528;28;20476;-58
2022/05/16 09:23:55;;;;;;;0.40;0.30;;;;;;;31.29;27.78;95615.34;5111926;28;20583;-58
2022/05/16 09:26:38;;;;;;;0.40;0.40;;;;;;;32.54;27.32;95616.41;5112257;28;20506;-58
2022/05/16 09:29:17;;;;;;;0.50;0.40;;;;;;;32.29;26.38;95585.59;5111969;28;20459;-58
2022/05/16 09:31:49;;;;;;;0.40;0.30;;;;;;;33.22;24.71;95606.44;5111980;28;20888;-58
2022/05/16 09:34:27;;;;;;;0.40;0.40;;;;;;;32.35;25.59;95601.22;5112067;28;20954;-58
2022/05/16 09:36:55;;;;;;;1.17;1.17;;;;;;;31.97;24.53;95462.38;5111909;28;21012;-57
2022/05/16 09:39:31;;;;;;;0.33;0.30;;;;;;;33.82;25.34;95597.53;5111868;28;20510;-57
2022/05/16 09:42:13;;;;;;;0.40;0.40;;;;;;;33.70;24.79;95598.09;5111863;28;20435;-57
2022/05/16 09:44:45;;;;;;;0.40;0.40;;;;;;;34.49;24.48;95586.41;5112025;28;20498;-57
2022/05/16 09:47:24;;;;;;;0.50;0.50;;;;;;;33.63;23.71;95582.44;5111755;28;20908;-57
2022/05/16 09:50:10;;;;;;;0.40;0.40;;;;;;;33.68;25.67;95581.22;5111689;28;20483;-57
2022/05/16 09:52:45;;;;;;;0.40;0.40;;;;;;;34.15;23.48;95568.44;5111925;28;20459;-57
2022/05/16 09:55:28;;;;;;;0.70;0.70;;;;;;;32.61;24.53;95572.47;5111480;28;20883;-57
2022/05/16 09:58:00;;;;;;;0.50;0.40;;;;;;;33.81;25.15;95572.00;5111658;28;20461;-57
2022/05/16 10:00:42;;;;;;;0.60;0.57;;;;;;;32.50;24.42;95574.47;5111718;28;20560;-57
2022/05/16 10:03:25;;;;;;;1.17;1.17;;;;;;;32.95;25.74;95553.31;5111734;28;21006;-55
2022/05/16 10:05:55;;;;;;;0.40;0.40;;;;;;;33.47;24.45;95551.22;5111940;28;20465;-55
2022/05/16 10:08:30;;;;;;;0.40;0.30;;;;;;;33.53;24.52;95552.31;5111995;28;20438;-55
2022/05/16 10:11:03;;;;;;;0.47;0.37;;;;;;;33.82;23.38;95546.09;5111646;28;20972;-55
2022/05/16 10:13:34;;;;;;;0.40;0.40;;;;;;;33.52;23.88;95488.28;5111615;28;20462;-55
2022/05/16 10:16:06;;;;;;;0.30;0.20;;;;;;;34.15;22.18;95543.69;5112522;28;20541;-54
2022/05/16 10:18:40;;;;;;;0.40;0.40;;;;;;;34.93;20.74;95527.47;5115780;28;20905;-55
2022/05/16 10:21:25;;;;;;;0.40;0.30;;;;;;;34.52;20.87;95532.47;5114956;28;20466;-55
2022/05/16 10:23:54;;;;;;;0.60;0.47;;;;;;;34.93;18.85;95521.97;5115538;28;20904;-54
2022/05/16 10:26:26;;;;;;;0.40;0.30;;;;;;;34.63;17.88;95524.06;5115616;28;20484;-54
2022/05/16 10:28:59;;;;;;;0.70;0.40;;;;;;;35.37;17.95;95497.94;5114854;28;20423;-54
2022/05/16 10:34:22;;;;;;;0.40;0.30;;;;;;;36.41;16.97;95511.81;5081372;28;20189;-54
2022/05/16 10:36:54;;;;;;;0.40;0.30;;;;;;;36.95;17.44;95510.09;5115208;28;20207;-54
2022/05/16 10:39:26;;;;;;;0.30;0.30;;;;;;;36.44;17.74;95473.06;5115241;28;20279;-54
2022/05/16 10:41:58;;;;;;;0.30;0.20;;;;;;;36.76;17.99;95525.53;5115587;28;20216;-54
2022/05/16 10:44:34;;;;;;;0.30;0.30;;;;;;;34.60;17.97;95429.34;5115439;28;20272;-54
2022/05/16 10:47:13;;;;;;;0.30;0.30;;;;;;;33.35;19.10;95464.56;5115028;28;20216;-54
2022/05/16 10:49:48;;;;;;;0.30;0.30;;;;;;;33.50;20.18;95495.41;5115229;27;20191;-54
2022/05/16 10:52:31;;;;;;;1.57;0.40;;;;;;;30.43;21.18;95245.72;5114462;28;21141;-55
2022/05/16 10:54:59;;;;;;;0.60;0.30;;;;;;;32.34;21.69;95500.88;5114756;28;20411;-54
2022/05/16 10:57:46;;;;;;;0.40;0.40;;;;;;;31.83;21.13;95473.41;5114889;28;20473;-54
2022/05/16 11:00:28;;;;;;;0.33;0.30;;;;;;;29.63;22.16;95218.19;5114912;28;20486;-54
2022/05/16 11:03:38;;;;;;;0.40;0.30;;;;;;;31.63;22.34;95472.38;5114698;28;20908;-54
2022/05/16 11:06:23;;;;;;;0.40;0.40;;;;;;;30.79;22.44;95323.69;5089839;28;20529;-54
2022/05/16 11:09:03;;;;;;;2.83;1.20;;;;;;;31.79;22.08;95470.72;5114653;28;20419;-55
2022/05/16 11:11:37;;;;;;;0.90;0.90;;;;;;;32.90;22.38;95468.63;5114395;28;20438;-54
2022/05/16 11:14:16;;;;;;;0.60;0.50;;;;;;;33.39;20.79;95479.06;5115018;28;20484;-54
2022/05/16 11:16:50;;;;;;;0.40;0.30;;;;;;;33.07;20.82;95475.91;5114797;28;20454;-54
2022/05/16 11:19:29;;;;;;;0.47;0.30;;;;;;;33.97;20.47;95468.84;5114578;28;20491;-55
2022/05/16 11:22:04;;;;;;;0.40;0.40;;;;;;;34.39;20.71;95468.19;5114423;28;20521;-53
2022/05/16 11:24:41;;;;;;;0.40;0.30;;;;;;;32.37;21.65;95469.13;5114337;28;20433;-54
2022/05/16 11:27:20;;;;;;;0.53;0.30;;;;;;;32.46;22.52;95463.97;5114240;28;20502;-54
2022/05/16 11:29:59;;;;;;;0.40;0.40;;;;;;;33.63;20.60;95456.00;5114196;28;20451;-54
2022/05/16 11:32:48;;;;;;;0.50;0.50;;;;;;;33.28;22.05;95453.69;5114439;28;20502;-54
2022/05/16 11:35:24;;;;;;;0.53;0.40;;;;;;;33.56;21.85;95425.84;5114038;28;20431;-54
2022/05/16 11:38:21;;;;;;;0.60;0.40;;;;;;;32.28;21.72;95444.13;5114367;28;20506;-55
2022/05/16 11:40:55;;;;;;;0.40;0.30;;;;;;;32.54;22.58;95440.75;5113961;28;20897;-54
2022/05/16 11:43:26;;;;;;;0.50;0.30;;;;;;;31.68;22.22;95447.28;5113827;28;20449;-55
2022/05/16 11:46:17;;;;;;;1.27;0.57;;;;;;;31.39;22.96;95441.97;5114236;28;20874;-55
2022/05/16 11:48:56;;;;;;;0.30;0.30;;;;;;;31.08;23.09;95385.38;5114159;28;20435;-54
2022/05/16 11:52:01;;;;;;;0.87;0.30;;;;;;;32.61;21.56;95441.47;5113606;28;20889;-55
2022/05/16 11:54:33;;;;;;;0.40;0.30;;;;;;;33.99;21.62;95436.22;5113691;28;20469;-55
2022/05/16 12:02:52;;;;;;;0.40;0.30;;;;;;;33.95;21.76;95419.78;5030515;28;20504;-54
2022/05/16 12:05:40;;;;;;;0.40;0.30;;;;;;;33.45;20.83;95416.94;5096232;28;20500;-54
2022/05/16 12:08:32;;;;;;;0.30;0.30;;;;;;;32.71;22.08;95412.38;5113744;28;20434;-55
2022/05/16 12:11:13;;;;;;;0.73;0.30;;;;;;;33.90;22.44;95416.72;5113776;28;20510;-55
2022/05/16 12:14:13;;;;;;;0.40;0.30;;;;;;;34.63;20.60;95403.72;5113200;28;20541;-54
2022/05/16 12:17:00;;;;;;;0.40;0.30;;;;;;;35.27;21.05;95400.47;5113058;28;20898;-54
2022/05/16 12:19:37;;;;;;;0.40;0.30;;;;;;;34.36;21.42;95394.72;5113044;28;20517;-55
2022/05/16 12:22:09;;;;;;;0.40;0.30;;;;;;;33.71;21.35;95399.72;5113345;28;20876;-54
2022/05/16 12:24:57;;;;;;;0.63;0.63;;;;;;;33.77;21.74;95398.06;5113598;28;20419;-55
2022/05/16 12:27:29;;;;;;;2.00;0.30;;;;;;;32.89;22.21;95399.19;5113361;28;20514;-55
2022/05/16 12:30:01;;;;;;;0.50;0.40;;;;;;;31.88;23.75;95393.47;5113521;28;20549;-55